Time,TemperatureF,DewpointF,PressureIn,WindDirection,WindDirectionDegrees,WindSpeedMPH,WindSpeedGustMPH,Humidity,HourlyPrecipIn,Conditions,Clouds,dailyrainin,SoftwareType,DateUTC
2013-03-14 00:00:00,36.2,26.0,29.89,West,281,5.0,12.0,66,0.00,,---,0.00,VWS V14.01,2013-03-14 04:00:00,
2013-03-14 00:05:00,36.2,26.0,29.89,WNW,282,1.0,8.0,66,0.00,,---,0.00,VWS V14.01,2013-03-14 04:05:00,
2013-03-14 00:10:00,36.1,26.2,29.89,NW,326,2.0,8.0,67,0.00,,---,0.00,VWS V14.01,2013-03-14 04:10:00,
2013-03-14 00:15:00,36.0,26.1,29.89,NW,305,2.0,9.0,67,0.00,,---,0.00,VWS V14.01,2013-03-14 04:15:00,
2013-03-14 00:20:00,35.9,26.4,29.89,WNW,303,6.0,9.0,68,0.00,,---,0.00,VWS V14.01,2013-03-14 04:20:00,
2013-03-14 00:25:00,35.8,26.6,29.90,West,273,3.0,9.0,69,0.00,,---,0.00,VWS V14.01,2013-03-14 04:25:00,
2013-03-14 00:30:00,35.6,27.1,29.89,WNW,295,8.0,9.0,71,0.00,,---,0.00,VWS V14.01,2013-03-14 04:30:00,
2013-03-14 00:35:00,35.5,27.0,29.89,SW,232,3.0,9.0,71,0.00,,---,0.00,VWS V14.01,2013-03-14 04:35:00,
2013-03-14 00:40:00,35.4,27.0,29.89,WSW,253,1.0,9.0,71,0.00,,---,0.00,VWS V14.01,2013-03-14 04:40:00,
2013-03-14 00:45:00,35.3,26.9,29.89,WSW,247,6.0,9.0,71,0.00,,---,0.00,VWS V14.01,2013-03-14 04:45:00,
2013-03-14 00:50:00,35.3,26.5,29.89,WSW,255,3.0,9.0,70,0.00,,---,0.00,VWS V14.01,2013-03-14 04:50:00,
2013-03-14 00:55:00,35.2,26.4,29.90,NW,314,10.0,10.0,70,0.00,,---,0.00,VWS V14.01,2013-03-14 04:55:00,
2013-03-14 01:00:00,35.1,25.3,29.89,NW,318,6.0,10.0,67,0.00,,---,0.00,VWS V14.01,2013-03-14 05:00:00,
2013-03-14 01:05:00,34.8,25.0,29.89,West,278,4.0,13.0,67,0.00,,---,0.00,VWS V14.01,2013-03-14 05:05:00,
2013-03-14 01:10:00,34.6,24.8,29.89,West,262,2.0,13.0,67,0.00,,---,0.00,VWS V14.01,2013-03-14 05:10:00,
2013-03-14 01:15:00,34.5,24.7,29.90,West,274,2.0,13.0,67,0.00,,---,0.00,VWS V14.01,2013-03-14 05:15:00,
2013-03-14 01:20:00,34.5,24.0,29.90,West,263,5.0,13.0,65,0.00,,---,0.00,VWS V14.01,2013-03-14 05:20:00,
2013-03-14 01:25:00,34.4,23.1,29.90,WNW,300,2.0,13.0,63,0.00,,---,0.00,VWS V14.01,2013-03-14 05:25:00,
2013-03-14 01:30:00,34.3,23.0,29.89,NW,305,1.0,13.0,63,0.00,,---,0.00,VWS V14.01,2013-03-14 05:30:00,
2013-03-14 01:35:00,34.3,22.6,29.89,WNW,283,1.0,6.0,62,0.00,,---,0.00,VWS V14.01,2013-03-14 05:35:00,
2013-03-14 01:40:00,34.3,23.0,29.90,NNE,20,6.0,6.0,63,0.00,,---,0.00,VWS V14.01,2013-03-14 05:40:00,
2013-03-14 01:45:00,34.2,22.9,29.90,North,6,0.0,8.0,63,0.00,,---,0.00,VWS V14.01,2013-03-14 05:45:00,
2013-03-14 01:50:00,34.1,22.5,29.90,WSW,256,1.0,9.0,62,0.00,,---,0.00,VWS V14.01,2013-03-14 05:50:00,
2013-03-14 01:55:00,34.0,21.6,29.90,NW,323,5.0,14.0,60,0.00,,---,0.00,VWS V14.01,2013-03-14 05:55:00,
2013-03-14 02:00:00,34.0,21.6,29.90,NW,326,3.0,14.0,60,0.00,,---,0.00,VWS V14.01,2013-03-14 06:00:00,
2013-03-14 02:05:00,34.0,22.7,29.90,WNW,294,4.0,5.0,63,0.00,,---,0.00,VWS V14.01,2013-03-14 06:05:00,
2013-03-14 02:10:00,34.0,20.8,29.90,West,260,5.0,13.0,58,0.00,,---,0.00,VWS V14.01,2013-03-14 06:10:00,
2013-03-14 02:15:00,33.9,19.9,29.90,NW,304,2.0,13.0,56,0.00,,---,0.00,VWS V14.01,2013-03-14 06:15:00,
2013-03-14 02:20:00,33.8,19.4,29.90,NNW,332,5.0,13.0,55,0.00,,---,0.00,VWS V14.01,2013-03-14 06:20:00,
2013-03-14 02:25:00,33.7,18.0,29.90,NW,308,7.0,13.0,52,0.00,,---,0.00,VWS V14.01,2013-03-14 06:25:00,
2013-03-14 02:30:00,33.6,17.9,29.90,WNW,301,4.0,13.0,52,0.00,,---,0.00,VWS V14.01,2013-03-14 06:30:00,
2013-03-14 02:35:00,33.5,16.9,29.90,West,269,5.0,8.0,50,0.00,,---,0.00,VWS V14.01,2013-03-14 06:35:00,
2013-03-14 02:40:00,33.4,16.3,29.90,West,264,12.0,12.0,49,0.00,,---,0.00,VWS V14.01,2013-03-14 06:40:00,
2013-03-14 02:45:00,33.4,15.4,29.90,NW,322,4.0,13.0,47,0.00,,---,0.00,VWS V14.01,2013-03-14 06:45:00,
2013-03-14 02:50:00,33.4,15.4,29.90,West,270,5.0,13.0,47,0.00,,---,0.00,VWS V14.01,2013-03-14 06:50:00,
2013-03-14 02:55:00,33.3,15.3,29.90,West,264,5.0,14.0,47,0.00,,---,0.00,VWS V14.01,2013-03-14 06:55:00,
2013-03-14 03:00:00,33.2,15.2,29.91,WNW,282,6.0,14.0,47,0.00,,---,0.00,VWS V14.01,2013-03-14 07:00:00,
2013-03-14 03:05:00,33.1,15.1,29.91,NNW,340,6.0,10.0,47,0.00,,---,0.00,VWS V14.01,2013-03-14 07:05:00,
2013-03-14 03:10:00,32.9,16.3,29.91,NNW,338,5.0,11.0,50,0.00,,---,0.00,VWS V14.01,2013-03-14 07:10:00,
2013-03-14 03:15:00,32.8,15.3,29.91,NW,309,8.0,12.0,48,0.00,,---,0.00,VWS V14.01,2013-03-14 07:15:00,
2013-03-14 03:20:00,32.6,16.0,29.91,NW,312,7.0,12.0,50,0.00,,---,0.00,VWS V14.01,2013-03-14 07:20:00,
2013-03-14 03:25:00,32.4,16.3,29.91,WNW,283,5.0,14.0,51,0.00,,---,0.00,VWS V14.01,2013-03-14 07:25:00,
2013-03-14 03:30:00,32.2,17.0,29.91,West,278,5.0,14.0,53,0.00,,---,0.00,VWS V14.01,2013-03-14 07:30:00,
2013-03-14 03:35:00,32.0,16.8,29.91,South,169,4.0,14.0,53,0.00,,---,0.00,VWS V14.01,2013-03-14 07:35:00,
2013-03-14 03:40:00,31.9,17.2,29.90,WNW,283,6.0,14.0,54,0.00,,---,0.00,VWS V14.01,2013-03-14 07:40:00,
2013-03-14 03:45:00,31.8,16.2,29.90,West,275,8.0,14.0,52,0.00,,---,0.00,VWS V14.01,2013-03-14 07:45:00,
2013-03-14 03:50:00,31.7,16.1,29.90,WNW,283,5.0,14.0,52,0.00,,---,0.00,VWS V14.01,2013-03-14 07:50:00,
2013-03-14 03:55:00,31.5,15.9,29.90,NW,316,10.0,14.0,52,0.00,,---,0.00,VWS V14.01,2013-03-14 07:55:00,
2013-03-14 04:00:00,31.2,15.2,29.90,WSW,243,3.0,14.0,51,0.00,,---,0.00,VWS V14.01,2013-03-14 08:00:00,
2013-03-14 04:05:00,31.0,15.4,29.90,WNW,302,3.0,5.0,52,0.00,,---,0.00,VWS V14.01,2013-03-14 08:05:00,
2013-03-14 04:10:00,30.8,14.4,29.90,West,276,4.0,9.0,50,0.00,,---,0.00,VWS V14.01,2013-03-14 08:10:00,
2013-03-14 04:15:00,30.6,14.2,29.90,North,352,3.0,9.0,50,0.00,,---,0.00,VWS V14.01,2013-03-14 08:15:00,
2013-03-14 04:20:00,30.4,13.5,29.90,NW,307,3.0,9.0,49,0.00,,---,0.00,VWS V14.01,2013-03-14 08:20:00,
2013-03-14 04:25:00,30.2,13.8,29.90,NW,309,7.0,9.0,50,0.00,,---,0.00,VWS V14.01,2013-03-14 08:25:00,
2013-03-14 04:30:00,30.1,15.1,29.90,NNW,329,1.0,9.0,53,0.00,,---,0.00,VWS V14.01,2013-03-14 08:30:00,
2013-03-14 04:35:00,30.0,15.4,29.90,WSW,241,1.0,4.0,54,0.00,,---,0.00,VWS V14.01,2013-03-14 08:35:00,
2013-03-14 04:40:00,29.9,15.7,29.90,WSW,252,2.0,9.0,55,0.00,,---,0.00,VWS V14.01,2013-03-14 08:40:00,
2013-03-14 04:45:00,29.8,15.2,29.91,WSW,252,8.0,15.0,54,0.00,,---,0.00,VWS V14.01,2013-03-14 08:45:00,
2013-03-14 04:50:00,29.8,15.2,29.90,WNW,285,2.0,15.0,54,0.00,,---,0.00,VWS V14.01,2013-03-14 08:50:00,
2013-03-14 04:55:00,29.8,15.6,29.91,WNW,292,3.0,15.0,55,0.00,,---,0.00,VWS V14.01,2013-03-14 08:55:00,
2013-03-14 05:00:00,29.8,15.2,29.91,West,271,7.0,15.0,54,0.00,,---,0.00,VWS V14.01,2013-03-14 09:00:00,
2013-03-14 05:05:00,29.7,14.7,29.91,ESE,105,1.0,6.0,53,0.00,,---,0.00,VWS V14.01,2013-03-14 09:05:00,
2013-03-14 05:10:00,29.7,13.8,29.91,West,260,12.0,12.0,51,0.00,,---,0.00,VWS V14.01,2013-03-14 09:10:00,
2013-03-14 05:15:00,29.7,13.8,29.91,West,259,6.0,14.0,51,0.00,,---,0.00,VWS V14.01,2013-03-14 09:15:00,
2013-03-14 05:20:00,29.6,13.7,29.91,WNW,288,4.0,14.0,51,0.00,,---,0.00,VWS V14.01,2013-03-14 09:20:00,
2013-03-14 05:25:00,29.6,14.6,29.91,NNE,23,4.0,14.0,53,0.00,,---,0.00,VWS V14.01,2013-03-14 09:25:00,
2013-03-14 05:30:00,29.4,14.4,29.91,West,280,6.0,14.0,53,0.00,,---,0.00,VWS V14.01,2013-03-14 09:30:00,
2013-03-14 05:35:00,29.4,13.5,29.91,WSW,258,5.0,14.0,51,0.00,,---,0.00,VWS V14.01,2013-03-14 09:35:00,
2013-03-14 05:40:00,29.3,14.3,29.91,WNW,291,8.0,14.0,53,0.00,,---,0.00,VWS V14.01,2013-03-14 09:40:00,
2013-03-14 05:45:00,29.3,14.3,29.91,WSW,253,2.0,14.0,53,0.00,,---,0.00,VWS V14.01,2013-03-14 09:45:00,
2013-03-14 05:50:00,29.2,14.6,29.91,West,278,6.0,14.0,54,0.00,,---,0.00,VWS V14.01,2013-03-14 09:50:00,
2013-03-14 05:55:00,29.2,14.2,29.91,WNW,287,6.0,14.0,53,0.00,,---,0.00,VWS V14.01,2013-03-14 09:55:00,
2013-03-14 06:00:00,29.1,14.1,29.91,ESE,106,0.0,14.0,53,0.00,,---,0.00,VWS V14.01,2013-03-14 10:00:00,
2013-03-14 06:05:00,29.0,14.4,29.91,SSW,194,2.0,5.0,54,0.00,,---,0.00,VWS V14.01,2013-03-14 10:05:00,
2013-03-14 06:10:00,29.0,15.3,29.91,West,267,6.0,7.0,56,0.00,,---,0.00,VWS V14.01,2013-03-14 10:10:00,
2013-03-14 06:15:00,29.0,14.4,29.91,West,259,7.0,7.0,54,0.00,,---,0.00,VWS V14.01,2013-03-14 10:15:00,
2013-03-14 06:20:00,29.0,14.4,29.91,South,190,4.0,8.0,54,0.00,,---,0.00,VWS V14.01,2013-03-14 10:20:00,
2013-03-14 06:25:00,28.9,14.8,29.91,WNW,300,2.0,8.0,55,0.00,,---,0.00,VWS V14.01,2013-03-14 10:25:00,
2013-03-14 06:30:00,29.0,14.4,29.91,North,356,0.0,8.0,54,0.00,,---,0.00,VWS V14.01,2013-03-14 10:30:00,
2013-03-14 06:35:00,29.2,15.1,29.91,NNW,330,4.0,11.0,55,0.00,,---,0.00,VWS V14.01,2013-03-14 10:35:00,
2013-03-14 06:40:00,29.2,15.5,29.92,West,277,9.0,11.0,56,0.00,,---,0.00,VWS V14.01,2013-03-14 10:40:00,
2013-03-14 06:45:00,29.3,14.3,29.92,NW,307,6.0,12.0,53,0.00,,---,0.00,VWS V14.01,2013-03-14 10:45:00,
2013-03-14 06:50:00,29.4,14.0,29.91,North,8,3.0,12.0,52,0.00,,---,0.00,VWS V14.01,2013-03-14 10:50:00,
2013-03-14 06:55:00,29.5,14.5,29.92,WNW,289,7.0,12.0,53,0.00,,---,0.00,VWS V14.01,2013-03-14 10:55:00,
2013-03-14 07:00:00,29.5,13.2,29.92,WNW,299,8.0,20.0,50,0.00,,---,0.00,VWS V14.01,2013-03-14 11:00:00,
2013-03-14 07:05:00,29.4,14.0,29.92,West,274,6.0,10.0,52,0.00,,---,0.00,VWS V14.01,2013-03-14 11:05:00,
2013-03-14 07:10:00,29.3,13.9,29.92,WSW,258,11.0,19.0,52,0.00,,---,0.00,VWS V14.01,2013-03-14 11:10:00,
2013-03-14 07:15:00,29.1,15.0,29.92,North,354,2.0,19.0,55,0.00,,---,0.00,VWS V14.01,2013-03-14 11:15:00,
2013-03-14 07:20:00,28.8,15.9,29.93,West,262,3.0,19.0,58,0.00,,---,0.00,VWS V14.01,2013-03-14 11:20:00,
2013-03-14 07:25:00,28.2,17.2,29.93,NW,305,6.0,19.0,63,0.00,,---,0.00,VWS V14.01,2013-03-14 11:25:00,
2013-03-14 07:30:00,27.7,17.8,29.93,South,179,0.0,19.0,66,0.00,,---,0.00,VWS V14.01,2013-03-14 11:30:00,
2013-03-14 07:35:00,27.5,18.3,29.93,WSW,255,2.0,5.0,68,0.00,,---,0.00,VWS V14.01,2013-03-14 11:35:00,
2013-03-14 07:40:00,27.6,15.2,29.94,WNW,282,3.0,12.0,59,0.00,,---,0.00,VWS V14.01,2013-03-14 11:40:00,
2013-03-14 07:45:00,27.8,15.4,29.94,WNW,300,8.0,15.0,59,0.00,,---,0.00,VWS V14.01,2013-03-14 11:45:00,
2013-03-14 07:50:00,27.9,14.6,29.94,North,5,9.0,15.0,57,0.00,,---,0.00,VWS V14.01,2013-03-14 11:50:00,
2013-03-14 07:55:00,27.9,13.8,29.95,NW,322,4.0,15.0,55,0.00,,---,0.00,VWS V14.01,2013-03-14 11:55:00,
2013-03-14 08:00:00,27.6,12.7,29.95,NW,307,6.0,15.0,53,0.00,,---,0.00,VWS V14.01,2013-03-14 12:00:00,
2013-03-14 08:05:00,27.6,12.7,29.96,NNW,343,3.0,14.0,53,0.00,,---,0.00,VWS V14.01,2013-03-14 12:05:00,
2013-03-14 08:10:00,27.4,10.8,29.96,West,263,7.0,19.0,49,0.00,,---,0.00,VWS V14.01,2013-03-14 12:10:00,
2013-03-14 08:15:00,27.0,10.4,29.96,NNE,20,2.0,19.0,49,0.00,,---,0.00,VWS V14.01,2013-03-14 12:15:00,
2013-03-14 08:20:00,26.9,9.4,29.96,North,359,5.0,19.0,47,0.00,,---,0.00,VWS V14.01,2013-03-14 12:20:00,
2013-03-14 08:25:00,26.7,9.7,29.97,West,264,9.0,21.0,48,0.00,,---,0.00,VWS V14.01,2013-03-14 12:25:00,
2013-03-14 08:30:00,26.6,10.0,29.96,NW,309,6.0,21.0,49,0.00,,---,0.00,VWS V14.01,2013-03-14 12:30:00,
2013-03-14 08:35:00,26.5,9.9,29.96,NNE,20,4.0,13.0,49,0.00,,---,0.00,VWS V14.01,2013-03-14 12:35:00,
2013-03-14 08:40:00,26.5,9.0,29.95,WNW,290,13.0,19.0,47,0.00,,---,0.00,VWS V14.01,2013-03-14 12:40:00,
2013-03-14 08:45:00,26.5,9.9,29.96,SSW,194,6.0,19.0,49,0.00,,---,0.00,VWS V14.01,2013-03-14 12:45:00,
2013-03-14 08:50:00,26.6,9.6,29.96,NNE,28,3.0,19.0,48,0.00,,---,0.00,VWS V14.01,2013-03-14 12:50:00,
2013-03-14 08:55:00,26.6,9.6,29.96,WNW,297,13.0,26.0,48,0.00,,---,0.00,VWS V14.01,2013-03-14 12:55:00,
2013-03-14 09:00:00,26.6,10.5,29.97,WNW,283,7.0,26.0,50,0.00,,---,0.00,VWS V14.01,2013-03-14 13:00:00,
2013-03-14 09:05:00,26.7,9.7,29.97,NNE,12,8.0,18.0,48,0.00,,---,0.00,VWS V14.01,2013-03-14 13:05:00,
2013-03-14 09:10:00,26.7,10.1,29.97,WNW,294,6.0,21.0,49,0.00,,---,0.00,VWS V14.01,2013-03-14 13:10:00,
2013-03-14 09:15:00,26.9,11.2,29.97,NNW,337,2.0,21.0,51,0.00,,---,0.00,VWS V14.01,2013-03-14 13:15:00,
2013-03-14 09:20:00,26.9,10.8,29.97,NNE,26,2.0,21.0,50,0.00,,---,0.00,VWS V14.01,2013-03-14 13:20:00,
2013-03-14 09:25:00,26.7,10.1,29.98,NNW,330,4.0,21.0,49,0.00,,---,0.00,VWS V14.01,2013-03-14 13:25:00,
2013-03-14 09:30:00,26.7,10.6,29.98,NNW,335,3.0,21.0,50,0.00,,---,0.00,VWS V14.01,2013-03-14 13:30:00,
2013-03-14 09:35:00,26.8,10.7,29.98,West,281,15.0,20.0,50,0.00,,---,0.00,VWS V14.01,2013-03-14 13:35:00,
2013-03-14 09:40:00,26.9,11.2,29.98,NNW,342,2.0,20.0,51,0.00,,---,0.00,VWS V14.01,2013-03-14 13:40:00,
2013-03-14 09:45:00,27.1,10.5,29.97,NNW,339,3.0,20.0,49,0.00,,---,0.00,VWS V14.01,2013-03-14 13:45:00,
2013-03-14 09:50:00,27.6,11.9,29.97,WSW,247,4.0,20.0,51,0.00,,---,0.00,VWS V14.01,2013-03-14 13:50:00,
2013-03-14 09:55:00,27.9,11.7,29.97,NNW,348,4.0,20.0,50,0.00,,---,0.00,VWS V14.01,2013-03-14 13:55:00,
2013-03-14 09:59:00,27.8,11.6,29.97,NNW,328,2.0,20.0,50,0.00,,---,0.00,VWS V14.01,2013-03-14 13:59:00,
2013-03-14 10:05:00,27.7,10.6,29.98,NNE,27,12.0,20.0,48,0.00,,---,0.00,VWS V14.01,2013-03-14 14:05:00,
2013-03-14 10:09:00,27.6,10.9,29.97,NW,325,5.0,20.0,49,0.00,,---,0.00,VWS V14.01,2013-03-14 14:09:00,
2013-03-14 10:14:00,27.9,11.7,29.97,WNW,294,6.0,20.0,50,0.00,,---,0.00,VWS V14.01,2013-03-14 14:14:00,
2013-03-14 10:19:00,27.9,11.2,29.97,North,3,4.0,20.0,49,0.00,,---,0.00,VWS V14.01,2013-03-14 14:19:00,
2013-03-14 10:24:00,28.1,10.9,29.97,NNW,332,3.0,20.0,48,0.00,,---,0.00,VWS V14.01,2013-03-14 14:24:00,
2013-03-14 10:29:00,28.1,11.9,29.96,NW,326,5.0,20.0,50,0.00,,---,0.00,VWS V14.01,2013-03-14 14:29:00,
2013-03-14 10:34:00,28.3,11.1,29.96,NNW,333,8.0,17.0,48,0.00,,---,0.00,VWS V14.01,2013-03-14 14:34:00,
2013-03-14 10:39:00,28.3,12.5,29.97,NW,307,8.0,17.0,51,0.00,,---,0.00,VWS V14.01,2013-03-14 14:39:00,
2013-03-14 10:44:00,28.6,12.8,29.96,West,274,13.0,17.0,51,0.00,,---,0.00,VWS V14.01,2013-03-14 14:44:00,
2013-03-14 10:49:00,28.5,11.0,29.96,WSW,245,5.0,15.0,49,0.00,,,0.00,weatherlink.com 1.10,2013-03-14 14:49:00,
2013-03-14 10:54:00,28.6,12.3,29.96,West,273,10.0,17.0,50,0.00,,---,0.00,VWS V14.01,2013-03-14 14:54:00,
2013-03-14 10:59:00,28.3,12.5,29.96,WSW,238,3.0,19.0,51,0.00,,---,0.00,VWS V14.01,2013-03-14 14:59:00,
2013-03-14 11:04:00,28.7,12.9,29.96,West,274,4.0,12.0,51,0.00,,---,0.00,VWS V14.01,2013-03-14 15:04:00,
2013-03-14 11:09:00,28.6,12.8,29.96,West,276,7.0,21.0,51,0.00,,---,0.00,VWS V14.01,2013-03-14 15:09:00,
2013-03-14 11:14:00,28.8,13.4,29.96,West,262,3.0,21.0,52,0.00,,---,0.00,VWS V14.01,2013-03-14 15:14:00,
2013-03-14 11:19:00,29.1,13.7,29.96,West,267,6.0,21.0,52,0.00,,---,0.00,VWS V14.01,2013-03-14 15:19:00,
2013-03-14 11:24:00,29.2,13.3,29.95,West,262,7.0,21.0,51,0.00,,---,0.00,VWS V14.01,2013-03-14 15:24:00,
2013-03-14 11:29:00,29.5,13.6,29.95,North,11,8.0,21.0,51,0.00,,---,0.00,VWS V14.01,2013-03-14 15:29:00,
2013-03-14 11:34:00,29.6,12.8,29.96,WNW,294,11.0,15.0,49,0.00,,---,0.00,VWS V14.01,2013-03-14 15:34:00,
2013-03-14 11:39:00,29.2,12.9,29.95,West,276,6.0,15.0,50,0.00,,---,0.00,VWS V14.01,2013-03-14 15:39:00,
2013-03-14 11:44:00,29.1,13.7,29.95,West,259,8.0,15.0,52,0.00,,---,0.00,VWS V14.01,2013-03-14 15:44:00,
2013-03-14 11:49:00,29.1,14.5,29.95,West,273,7.0,15.0,54,0.00,,---,0.00,VWS V14.01,2013-03-14 15:49:00,
2013-03-14 11:54:00,29.3,14.7,29.95,WSW,257,4.0,15.0,54,0.00,,---,0.00,VWS V14.01,2013-03-14 15:54:00,
2013-03-14 11:59:00,29.6,14.6,29.95,WNW,300,9.0,15.0,53,0.00,,---,0.00,VWS V14.01,2013-03-14 15:59:00,
2013-03-14 12:04:00,29.4,13.5,29.95,WNW,295,8.0,14.0,51,0.00,,---,0.00,VWS V14.01,2013-03-14 16:04:00,
2013-03-14 12:09:00,29.3,13.4,29.96,West,280,7.0,17.0,51,0.00,,---,0.00,VWS V14.01,2013-03-14 16:09:00,
2013-03-14 12:14:00,29.6,13.7,29.95,North,352,8.0,17.0,51,0.00,,---,0.00,VWS V14.01,2013-03-14 16:14:00,
2013-03-14 12:19:00,30.0,14.1,29.95,NW,305,6.0,17.0,51,0.00,,---,0.00,VWS V14.01,2013-03-14 16:19:00,
2013-03-14 12:24:00,29.9,13.1,29.94,NW,307,3.0,17.0,49,0.00,,---,0.00,VWS V14.01,2013-03-14 16:24:00,
2013-03-14 12:29:00,29.9,13.5,29.94,WNW,299,9.0,17.0,50,0.00,,---,0.00,VWS V14.01,2013-03-14 16:29:00,
2013-03-14 12:34:00,29.7,12.9,29.94,North,7,6.0,16.0,49,0.00,,---,0.00,VWS V14.01,2013-03-14 16:34:00,
2013-03-14 12:39:00,30.0,13.6,29.93,NW,317,6.0,16.0,50,0.00,,---,0.00,VWS V14.01,2013-03-14 16:39:00,
2013-03-14 12:44:00,30.5,14.1,29.93,WNW,300,6.0,16.0,50,0.00,,---,0.00,VWS V14.01,2013-03-14 16:44:00,
2013-03-14 12:49:00,31.0,13.1,29.93,West,270,7.0,16.0,47,0.00,,---,0.00,VWS V14.01,2013-03-14 16:49:00,
2013-03-14 12:54:00,31.2,13.3,29.93,WNW,295,5.0,16.0,47,0.00,,---,0.00,VWS V14.01,2013-03-14 16:54:00,
2013-03-14 12:59:00,31.6,13.2,29.93,WSW,257,8.0,16.0,46,0.00,,---,0.00,VWS V14.01,2013-03-14 16:59:00,
2013-03-14 13:04:00,32.2,13.8,29.92,WNW,293,4.0,10.0,46,0.00,,---,0.00,VWS V14.01,2013-03-14 17:04:00,
2013-03-14 13:09:00,32.0,13.1,29.92,West,271,9.0,19.0,45,0.00,,---,0.00,VWS V14.01,2013-03-14 17:09:00,
2013-03-14 13:14:00,31.7,12.8,29.92,NW,305,10.0,21.0,45,0.00,,---,0.00,VWS V14.01,2013-03-14 17:14:00,
2013-03-14 13:19:00,31.7,12.3,29.92,West,266,24.0,24.0,44,0.00,,---,0.00,VWS V14.01,2013-03-14 17:19:00,
2013-03-14 13:24:00,31.7,12.8,29.92,NW,307,9.0,24.0,45,0.00,,---,0.00,VWS V14.01,2013-03-14 17:24:00,
2013-03-14 13:29:00,31.9,12.5,29.92,WSW,252,6.0,24.0,44,0.00,,---,0.00,VWS V14.01,2013-03-14 17:29:00,
2013-03-14 13:34:00,31.7,12.8,29.92,West,264,14.0,21.0,45,0.00,,---,0.00,VWS V14.01,2013-03-14 17:34:00,
2013-03-14 13:39:00,31.8,13.4,29.91,West,276,9.0,21.0,46,0.00,,---,0.00,VWS V14.01,2013-03-14 17:39:00,
2013-03-14 13:44:00,32.4,12.9,29.91,NW,310,10.0,21.0,44,0.00,,---,0.00,VWS V14.01,2013-03-14 17:44:00,
2013-03-14 13:49:00,32.7,14.2,29.91,WSW,247,7.0,21.0,46,0.00,,---,0.00,VWS V14.01,2013-03-14 17:49:00,
2013-03-14 13:54:00,32.9,14.4,29.91,NNE,26,6.0,21.0,46,0.00,,---,0.00,VWS V14.01,2013-03-14 17:54:00,
2013-03-14 13:59:00,33.1,14.1,29.91,West,274,5.0,21.0,45,0.00,,---,0.00,VWS V14.01,2013-03-14 17:59:00,
2013-03-14 14:04:00,32.9,13.9,29.91,WNW,288,12.0,12.0,45,0.00,,---,0.00,VWS V14.01,2013-03-14 18:04:00,
2013-03-14 14:09:00,32.7,13.7,29.90,NNW,333,3.0,14.0,45,0.00,,---,0.00,VWS V14.01,2013-03-14 18:09:00,
2013-03-14 14:14:00,33.2,13.7,29.90,WNW,290,1.0,14.0,44,0.00,,---,0.00,VWS V14.01,2013-03-14 18:14:00,
2013-03-14 14:19:00,34.0,13.9,29.89,SW,226,4.0,14.0,43,0.00,,---,0.00,VWS V14.01,2013-03-14 18:19:00,
2013-03-14 14:24:00,34.0,13.3,29.89,NW,325,14.0,17.0,42,0.00,,---,0.00,VWS V14.01,2013-03-14 18:24:00,
2013-03-14 14:29:00,34.5,13.2,29.89,West,266,17.0,17.0,41,0.00,,---,0.00,VWS V14.01,2013-03-14 18:29:00,
2013-03-14 14:34:00,34.1,12.3,29.90,WSW,253,13.0,21.0,40,0.00,,---,0.00,VWS V14.01,2013-03-14 18:34:00,
2013-03-14 14:39:00,34.1,12.3,29.89,WNW,288,4.0,21.0,40,0.00,,---,0.00,VWS V14.01,2013-03-14 18:39:00,
2013-03-14 14:44:00,34.4,13.1,29.89,West,277,9.0,21.0,41,0.00,,---,0.00,VWS V14.01,2013-03-14 18:44:00,
2013-03-14 14:49:00,34.6,12.8,29.89,WNW,300,9.0,21.0,40,0.00,,---,0.00,VWS V14.01,2013-03-14 18:49:00,
2013-03-14 14:54:00,34.4,12.6,29.89,West,278,8.0,21.0,40,0.00,,---,0.00,VWS V14.01,2013-03-14 18:54:00,
2013-03-14 14:59:00,34.3,13.1,29.89,NW,312,8.0,21.0,41,0.00,,---,0.00,VWS V14.01,2013-03-14 18:59:00,
2013-03-14 15:04:00,34.5,12.7,29.89,West,276,16.0,16.0,40,0.00,,---,0.00,VWS V14.01,2013-03-14 19:04:00,
2013-03-14 15:09:00,34.7,12.3,29.89,NW,316,5.0,17.0,39,0.00,,---,0.00,VWS V14.01,2013-03-14 19:09:00,
2013-03-14 15:14:00,35.1,12.6,29.88,NNE,32,8.0,18.0,39,0.00,,---,0.00,VWS V14.01,2013-03-14 19:14:00,
2013-03-14 15:19:00,35.4,12.9,29.88,North,349,5.0,18.0,39,0.00,,---,0.00,VWS V14.01,2013-03-14 19:19:00,
2013-03-14 15:24:00,35.7,13.2,29.87,NNW,340,2.0,18.0,39,0.00,,---,0.00,VWS V14.01,2013-03-14 19:24:00,
2013-03-14 15:29:00,35.9,12.8,29.87,West,275,5.0,18.0,38,0.00,,---,0.00,VWS V14.01,2013-03-14 19:29:00,
2013-03-14 15:34:00,35.9,12.8,29.87,NNE,27,3.0,13.0,38,0.00,,---,0.00,VWS V14.01,2013-03-14 19:34:00,
2013-03-14 15:39:00,36.2,13.6,29.87,West,273,10.0,13.0,39,0.00,,---,0.00,VWS V14.01,2013-03-14 19:39:00,
2013-03-14 15:44:00,36.1,13.6,29.87,WNW,301,4.0,13.0,39,0.00,,---,0.00,VWS V14.01,2013-03-14 19:44:00,
2013-03-14 15:49:00,36.4,12.6,29.86,NW,325,4.0,13.0,37,0.00,,---,0.00,VWS V14.01,2013-03-14 19:49:00,
2013-03-14 15:54:00,36.9,11.8,29.86,NW,309,2.0,13.0,35,0.00,,---,0.00,VWS V14.01,2013-03-14 19:54:00,
2013-03-14 15:59:00,37.3,11.5,29.86,West,273,10.0,13.0,34,0.00,,---,0.00,VWS V14.01,2013-03-14 19:59:00,
2013-03-14 16:04:00,37.5,11.0,29.86,West,270,6.0,17.0,33,0.00,,---,0.00,VWS V14.01,2013-03-14 20:04:00,
2013-03-14 16:09:00,37.7,10.5,29.86,West,270,5.0,17.0,32,0.00,,---,0.00,VWS V14.01,2013-03-14 20:09:00,
2013-03-14 16:14:00,38.1,10.9,29.86,WNW,293,5.0,17.0,32,0.00,,---,0.00,VWS V14.01,2013-03-14 20:14:00,
2013-03-14 16:19:00,38.1,10.9,29.86,WNW,293,11.0,17.0,32,0.00,,---,0.00,VWS V14.01,2013-03-14 20:19:00,
2013-03-14 16:24:00,38.6,11.3,29.86,West,260,4.0,17.0,32,0.00,,---,0.00,VWS V14.01,2013-03-14 20:24:00,
2013-03-14 16:29:00,38.9,10.1,29.86,SW,231,8.0,17.0,30,0.00,,---,0.00,VWS V14.01,2013-03-14 20:29:00,
2013-03-14 16:34:00,38.8,8.5,29.86,SSW,212,10.0,22.0,28,0.00,,---,0.00,VWS V14.01,2013-03-14 20:34:00,
2013-03-14 16:39:00,38.8,10.8,29.86,NNW,338,8.0,23.0,31,0.00,,---,0.00,VWS V14.01,2013-03-14 20:39:00,
2013-03-14 16:44:00,38.8,8.5,29.86,WNW,293,5.0,23.0,28,0.00,,---,0.00,VWS V14.01,2013-03-14 20:44:00,
2013-03-14 16:49:00,38.9,6.9,29.86,NW,314,9.0,23.0,26,0.00,,---,0.00,VWS V14.01,2013-03-14 20:49:00,
2013-03-14 16:54:00,38.8,6.0,29.86,WNW,290,10.0,23.0,25,0.00,,---,0.00,VWS V14.01,2013-03-14 20:54:00,
2013-03-14 16:59:00,38.9,8.6,29.86,WSW,257,6.0,23.0,28,0.00,,---,0.00,VWS V14.01,2013-03-14 20:59:00,
2013-03-14 17:04:00,38.8,6.9,29.87,WSW,256,11.0,17.0,26,0.00,,---,0.00,VWS V14.01,2013-03-14 21:04:00,
2013-03-14 17:09:00,38.7,6.8,29.86,SW,228,12.0,17.0,26,0.00,,---,0.00,VWS V14.01,2013-03-14 21:09:00,
2013-03-14 17:14:00,38.7,6.8,29.87,West,278,8.0,17.0,26,0.00,,---,0.00,VWS V14.01,2013-03-14 21:14:00,
2013-03-14 17:19:00,38.6,5.8,29.87,WSW,253,10.0,17.0,25,0.00,,---,0.00,VWS V14.01,2013-03-14 21:19:00,
2013-03-14 17:24:00,38.5,6.6,29.86,West,274,16.0,17.0,26,0.00,,---,0.00,VWS V14.01,2013-03-14 21:24:00,
2013-03-14 17:29:00,38.7,7.6,29.86,West,265,1.0,17.0,27,0.00,,---,0.00,VWS V14.01,2013-03-14 21:29:00,
2013-03-14 17:34:00,38.9,6.1,29.86,WSW,256,5.0,23.0,25,0.00,,---,0.00,VWS V14.01,2013-03-14 21:34:00,
2013-03-14 17:39:00,39.0,7.9,29.87,NNW,330,2.0,23.0,27,0.00,,---,0.00,VWS V14.01,2013-03-14 21:39:00,
2013-03-14 17:44:00,39.1,6.3,29.87,West,273,7.0,23.0,25,0.00,,---,0.00,VWS V14.01,2013-03-14 21:44:00,
2013-03-14 17:49:00,38.9,6.1,29.87,West,277,3.0,23.0,25,0.00,,---,0.00,VWS V14.01,2013-03-14 21:49:00,
2013-03-14 17:54:00,38.7,4.1,29.88,NW,314,5.0,23.0,23,0.00,,---,0.00,VWS V14.01,2013-03-14 21:54:00,
2013-03-14 17:59:00,38.7,5.0,29.87,NNW,327,6.0,23.0,24,0.00,,---,0.00,VWS V14.01,2013-03-14 21:59:00,
2013-03-14 18:04:00,38.4,4.8,29.88,West,271,9.0,18.0,24,0.00,,---,0.00,VWS V14.01,2013-03-14 22:04:00,
2013-03-14 18:09:00,38.3,4.7,29.87,SW,225,6.0,18.0,24,0.00,,---,0.00,VWS V14.01,2013-03-14 22:09:00,
2013-03-14 18:14:00,38.3,4.7,29.87,West,264,4.0,18.0,24,0.00,,---,0.00,VWS V14.01,2013-03-14 22:14:00,
2013-03-14 18:19:00,38.3,5.6,29.87,WNW,293,11.0,20.0,25,0.00,,---,0.00,VWS V14.01,2013-03-14 22:19:00,
2013-03-14 18:24:00,38.2,4.6,29.88,West,266,7.0,20.0,24,0.00,,---,0.00,VWS V14.01,2013-03-14 22:24:00,
2013-03-14 18:29:00,37.9,5.2,29.88,NW,314,5.0,20.0,25,0.00,,---,0.00,VWS V14.01,2013-03-14 22:29:00,
2013-03-14 18:34:00,37.6,4.1,29.89,WNW,297,14.0,17.0,24,0.00,,---,0.00,VWS V14.01,2013-03-14 22:34:00,
2013-03-14 18:39:00,37.5,5.8,29.89,WNW,297,7.0,17.0,26,0.00,,---,0.00,VWS V14.01,2013-03-14 22:39:00,
2013-03-14 18:44:00,37.4,4.8,29.89,NW,316,4.0,17.0,25,0.00,,---,0.00,VWS V14.01,2013-03-14 22:44:00,
2013-03-14 18:49:00,37.3,6.4,29.89,WSW,238,3.0,17.0,27,0.00,,---,0.00,VWS V14.01,2013-03-14 22:49:00,
2013-03-14 18:54:00,37.1,6.2,29.89,WNW,293,3.0,17.0,27,0.00,,---,0.00,VWS V14.01,2013-03-14 22:54:00,
2013-03-14 18:59:00,36.9,6.8,29.89,WNW,289,4.0,17.0,28,0.00,,---,0.00,VWS V14.01,2013-03-14 22:59:00,
2013-03-14 19:04:00,36.8,6.0,29.89,NNE,16,12.0,12.0,27,0.00,,---,0.00,VWS V14.01,2013-03-14 23:04:00,
2013-03-14 19:09:00,36.7,5.9,29.89,WNW,295,6.0,16.0,27,0.00,,---,0.00,VWS V14.01,2013-03-14 23:09:00,
2013-03-14 19:14:00,36.5,6.5,29.90,WNW,288,3.0,16.0,28,0.00,,---,0.00,VWS V14.01,2013-03-14 23:14:00,
2013-03-14 19:19:00,36.4,5.6,29.90,WNW,300,7.0,16.0,27,0.00,,---,0.00,VWS V14.01,2013-03-14 23:19:00,
2013-03-14 19:24:00,36.3,7.1,29.90,West,266,5.0,16.0,29,0.00,,---,0.00,VWS V14.01,2013-03-14 23:24:00,
2013-03-14 19:29:00,36.1,8.4,29.90,WNW,302,5.0,16.0,31,0.00,,---,0.00,VWS V14.01,2013-03-14 23:29:00,
2013-03-14 19:34:00,36.0,6.1,29.90,ESE,110,4.0,10.0,28,0.00,,---,0.00,VWS V14.01,2013-03-14 23:34:00,
2013-03-14 19:39:00,35.9,6.0,29.91,WNW,301,6.0,12.0,28,0.00,,---,0.00,VWS V14.01,2013-03-14 23:39:00,
2013-03-14 19:44:00,35.9,6.8,29.91,West,278,5.0,15.0,29,0.00,,---,0.00,VWS V14.01,2013-03-14 23:44:00,
2013-03-14 19:49:00,35.7,5.8,29.91,WNW,285,6.0,16.0,28,0.00,,---,0.00,VWS V14.01,2013-03-14 23:49:00,
2013-03-14 19:54:00,35.6,7.2,29.91,NE,43,0.0,16.0,30,0.00,,---,0.00,VWS V14.01,2013-03-14 23:54:00,
2013-03-14 19:59:00,35.4,6.3,29.92,NNE,26,4.0,16.0,29,0.00,,---,0.00,VWS V14.01,2013-03-14 23:59:00,
2013-03-14 20:04:00,35.3,7.7,29.92,WSW,257,10.0,11.0,31,0.00,,---,0.00,VWS V14.01,2013-03-15 00:04:00,
2013-03-14 20:09:00,35.2,8.3,29.92,WSW,253,4.0,11.0,32,0.00,,---,0.00,VWS V14.01,2013-03-15 00:09:00,
2013-03-14 20:14:00,35.1,9.6,29.92,WNW,288,5.0,16.0,34,0.00,,---,0.00,VWS V14.01,2013-03-15 00:14:00,
2013-03-14 20:19:00,35.0,8.1,29.92,WNW,293,5.0,16.0,32,0.00,,---,0.00,VWS V14.01,2013-03-15 00:19:00,
2013-03-14 20:24:00,34.8,7.3,29.92,WNW,297,5.0,16.0,31,0.00,,---,0.00,VWS V14.01,2013-03-15 00:24:00,
2013-03-14 20:29:00,34.7,7.2,29.93,North,351,6.0,16.0,31,0.00,,---,0.00,VWS V14.01,2013-03-15 00:29:00,
2013-03-14 20:34:00,34.7,6.4,29.93,North,359,6.0,13.0,30,0.00,,---,0.00,VWS V14.01,2013-03-15 00:34:00,
2013-03-14 20:39:00,34.6,6.4,29.93,West,276,6.0,13.0,30,0.00,,---,0.00,VWS V14.01,2013-03-15 00:39:00,
2013-03-14 20:44:00,34.5,7.0,29.93,WNW,292,3.0,17.0,31,0.00,,---,0.00,VWS V14.01,2013-03-15 00:44:00,
2013-03-14 20:49:00,34.5,7.0,29.93,West,277,10.0,17.0,31,0.00,,---,0.00,VWS V14.01,2013-03-15 00:49:00,
2013-03-14 20:54:00,34.4,6.9,29.93,WNW,283,5.0,21.0,31,0.00,,---,0.00,VWS V14.01,2013-03-15 00:54:00,
2013-03-14 20:59:00,34.3,7.5,29.93,WNW,282,2.0,21.0,32,0.00,,---,0.00,VWS V14.01,2013-03-15 00:59:00,
2013-03-14 21:04:00,34.1,7.3,29.93,NE,36,2.0,12.0,32,0.00,,---,0.00,VWS V14.01,2013-03-15 01:04:00,
2013-03-14 21:09:00,34.0,7.9,29.93,NNE,33,3.0,12.0,33,0.00,,---,0.00,VWS V14.01,2013-03-15 01:09:00,
2013-03-14 21:14:00,33.9,7.2,29.93,NNW,344,2.0,12.0,32,0.00,,---,0.00,VWS V14.01,2013-03-15 01:14:00,
2013-03-14 21:19:00,33.9,7.2,29.93,West,270,5.0,12.0,32,0.00,,---,0.00,VWS V14.01,2013-03-15 01:19:00,
2013-03-14 21:24:00,33.9,7.8,29.94,North,354,2.0,15.0,33,0.00,,---,0.00,VWS V14.01,2013-03-15 01:24:00,
2013-03-14 21:29:00,33.8,7.8,29.93,WNW,301,7.0,15.0,33,0.00,,---,0.00,VWS V14.01,2013-03-15 01:29:00,
2013-03-14 21:34:00,33.7,7.7,29.94,NNE,23,3.0,7.0,33,0.00,,---,0.00,VWS V14.01,2013-03-15 01:34:00,
2013-03-14 21:39:00,33.5,7.5,29.94,NNE,23,2.0,7.0,33,0.00,,---,0.00,VWS V14.01,2013-03-15 01:39:00,
2013-03-14 21:44:00,33.3,7.3,29.94,WNW,290,0.0,7.0,33,0.00,,---,0.00,VWS V14.01,2013-03-15 01:44:00,
2013-03-14 21:49:00,33.1,7.8,29.94,NE,53,0.0,7.0,34,0.00,,---,0.00,VWS V14.01,2013-03-15 01:49:00,
2013-03-14 21:54:00,32.7,7.4,29.94,NW,312,3.0,7.0,34,0.00,,---,0.00,VWS V14.01,2013-03-15 01:54:00,
2013-03-14 21:59:00,32.5,7.3,29.94,NNE,32,3.0,7.0,34,0.00,,---,0.00,VWS V14.01,2013-03-15 01:59:00,
2013-03-14 22:04:00,32.5,7.9,29.95,West,273,1.0,10.0,35,0.00,,---,0.00,VWS V14.01,2013-03-15 02:04:00,
2013-03-14 22:09:00,32.4,7.2,29.95,NW,322,2.0,10.0,34,0.00,,---,0.00,VWS V14.01,2013-03-15 02:09:00,
2013-03-14 22:14:00,32.3,7.1,29.95,WSW,249,4.0,10.0,34,0.00,,---,0.00,VWS V14.01,2013-03-15 02:14:00,
2013-03-14 22:19:00,32.2,7.0,29.95,WSW,256,2.0,10.0,34,0.00,,---,0.00,VWS V14.01,2013-03-15 02:19:00,
2013-03-14 22:24:00,32.1,6.9,29.95,NW,320,3.0,10.0,34,0.00,,---,0.00,VWS V14.01,2013-03-15 02:24:00,
2013-03-14 22:29:00,32.1,6.9,29.95,NE,36,3.0,10.0,34,0.00,,---,0.00,VWS V14.01,2013-03-15 02:29:00,
2013-03-14 22:34:00,32.0,7.5,29.95,NW,311,2.0,2.0,35,0.00,,---,0.00,VWS V14.01,2013-03-15 02:34:00,
2013-03-14 22:39:00,31.8,7.3,29.95,WNW,293,0.0,4.0,35,0.00,,---,0.00,VWS V14.01,2013-03-15 02:39:00,
2013-03-14 22:44:00,31.6,7.7,29.95,ESE,111,1.0,5.0,36,0.00,,---,0.00,VWS V14.01,2013-03-15 02:44:00,
2013-03-14 22:49:00,31.6,7.7,29.96,West,264,3.0,11.0,36,0.00,,---,0.00,VWS V14.01,2013-03-15 02:49:00,
2013-03-14 22:54:00,31.7,7.2,29.96,NE,46,3.0,11.0,35,0.00,,---,0.00,VWS V14.01,2013-03-15 02:54:00,
2013-03-14 22:59:00,31.7,7.8,29.96,NW,305,3.0,11.0,36,0.00,,---,0.00,VWS V14.01,2013-03-15 02:59:00,
2013-03-14 23:04:00,31.7,8.4,29.96,West,262,4.0,8.0,37,0.00,,---,0.00,VWS V14.01,2013-03-15 03:04:00,
2013-03-14 23:09:00,31.7,7.8,29.96,NNE,30,1.0,8.0,36,0.00,,---,0.00,VWS V14.01,2013-03-15 03:09:00,
2013-03-14 23:14:00,31.7,9.0,29.96,NW,326,0.0,8.0,38,0.00,,---,0.00,VWS V14.01,2013-03-15 03:14:00,
2013-03-14 23:19:00,31.6,8.3,29.96,SSE,153,1.0,8.0,37,0.00,,---,0.00,VWS V14.01,2013-03-15 03:19:00,
2013-03-14 23:24:00,31.6,8.3,29.97,WNW,294,2.0,8.0,37,0.00,,---,0.00,VWS V14.01,2013-03-15 03:24:00,
2013-03-14 23:29:00,31.4,8.7,29.97,SE,133,0.0,8.0,38,0.00,,---,0.00,VWS V14.01,2013-03-15 03:29:00,
2013-03-14 23:34:00,31.1,8.5,29.97,SSW,203,0.0,3.0,38,0.00,,---,0.00,VWS V14.01,2013-03-15 03:34:00,
2013-03-14 23:39:00,31.1,9.6,29.96,North,352,1.0,10.0,40,0.00,,---,0.00,VWS V14.01,2013-03-15 03:39:00,
2013-03-14 23:44:00,31.3,9.8,29.97,West,259,7.0,10.0,40,0.00,,---,0.00,VWS V14.01,2013-03-15 03:44:00,
2013-03-14 23:49:00,31.4,10.4,29.97,WNW,290,8.0,10.0,41,0.00,,---,0.00,VWS V14.01,2013-03-15 03:49:00,
2013-03-14 23:54:00,31.5,10.0,29.97,West,262,4.0,10.0,40,0.00,,---,0.00,VWS V14.01,2013-03-15 03:54:00,
2013-03-14 23:59:00,31.5,11.1,29.97,NE,46,3.0,10.0,42,0.00,,---,0.00,VWS V14.01,2013-03-15 03:59:00,